Trabzon — 9HA2783 — position and weather

sailwx.info

Track history (hours):
 
Tides and Currents Weather Stations Pressure Air Temp Water Temp Dewpoint Dewpoint Depression Visibility Wind Speed Wind Dir Waves Ship Positions

Trabzon

Last reported at 2014-Dec-14 16:30 UTC. Time now 2014-Dec-20 16:30 UTC.
Position N 66°13' E 012°42'.

Length 229 m; draft 9 m.

Type: Cargo ship. MMSI: 215679000.

Date/timePositionNaut miles runAvg speedWind from/ knotsBaromVisibWave heightAir tempDewpointWater temp
2014-Dec-14 16:30N 66°13' E 012°42'5 4.9
2014-Dec-14 15:33N 66°15' E 012°32'8 8.4
2014-Dec-14 14:33N 66°17' E 012°12'  
2014-Dec-11 02:33N 54°20' E 004°60'1110.9
2014-Dec-11 01:33N 54°09' E 004°55'10 9.8
2014-Dec-11 00:31N 53°59' E 004°53'9 9.3
2014-Dec-10 23:32N 53°50' E 004°54'10 9.8
2014-Dec-10 22:33N 53°41' E 004°52'1010.5
2014-Dec-10 21:33N 53°31' E 004°46'1111.3
2014-Dec-10 20:34N 53°20' E 004°40'1211.8
2014-Dec-10 19:33N 53°09' E 004°31'1312.9
2014-Dec-10 18:33N 52°59' E 004°19'1312.6
2014-Dec-10 17:33N 52°47' E 004°11'1212.3
2014-Dec-10 16:33N 52°35' E 004°06'9 9.3
2014-Dec-10 15:33N 52°30' E 004°19'8 8.5
2014-Dec-10 14:33N 52°28' E 004°32'2 2.0
2014-Dec-10 13:33N 52°28' E 004°36'0 0.0
2014-Dec-10 12:33N 52°28' E 004°36'0 0.0
2014-Dec-10 11:33N 52°28' E 004°36'0 0.0
2014-Dec-10 10:33N 52°28' E 004°36'0 0.0
2014-Dec-10 09:33N 52°28' E 004°36'0 0.0
2014-Dec-10 08:33N 52°28' E 004°36'0 0.0
2014-Dec-10 07:33N 52°28' E 004°36'0 0.0
2014-Dec-10 06:33N 52°28' E 004°36'0 0.0
2014-Dec-10 05:33N 52°28' E 004°36'0 0.0
2014-Dec-10 04:33N 52°28' E 004°36'0 0.0
2014-Dec-10 02:33N 52°28' E 004°36'0 0.0
2014-Dec-10 01:30N 52°28' E 004°36'0 0.0
2014-Dec-10 00:33N 52°28' E 004°36'0 0.0
2014-Dec-09 23:33N 52°28' E 004°36'0 0.0
2014-Dec-09 22:33N 52°28' E 004°36'0 0.0
2014-Dec-09 21:33N 52°28' E 004°36'0 0.0
2014-Dec-09 20:33N 52°28' E 004°36'0 0.0
2014-Dec-09 19:33N 52°28' E 004°36'0 0.0
2014-Dec-09 18:33N 52°28' E 004°36'0 0.0
2014-Dec-09 17:33N 52°28' E 004°36'0 0.0
2014-Dec-09 16:33N 52°28' E 004°36'0 0.0
2014-Dec-09 15:33N 52°28' E 004°36'0 0.0
2014-Dec-09 14:33N 52°28' E 004°36'0 0.0
2014-Dec-09 13:33N 52°28' E 004°36'0 0.0
2014-Dec-09 12:33N 52°28' E 004°36'0 0.0
2014-Dec-09 11:33N 52°28' E 004°36'0 0.0
2014-Dec-09 10:33N 52°28' E 004°36'0 0.0
2014-Dec-09 09:33N 52°28' E 004°36'0 0.0
2014-Dec-09 08:33N 52°28' E 004°36'0 0.0
2014-Dec-09 07:33N 52°28' E 004°36'0 0.0
2014-Dec-09 06:33N 52°28' E 004°36'0 0.0
2014-Dec-09 05:33N 52°28' E 004°36'0 0.0
2014-Dec-09 04:33N 52°28' E 004°36'0 0.0
2014-Dec-09 03:33N 52°28' E 004°36'0 0.0
2014-Dec-09 02:33N 52°28' E 004°36'0 0.0
2014-Dec-09 01:33N 52°28' E 004°36'0 0.0
2014-Dec-09 00:33N 52°28' E 004°36'0 0.0
2014-Dec-08 23:33N 52°28' E 004°36'0 0.0
2014-Dec-08 22:33N 52°28' E 004°36'0 0.0
2014-Dec-08 21:33N 52°28' E 004°36'0 0.0
2014-Dec-08 20:33N 52°28' E 004°36'0 0.0
2014-Dec-08 19:33N 52°28' E 004°36'0 0.0
2014-Dec-08 18:33N 52°28' E 004°36'0 0.0
2014-Dec-08 17:33N 52°28' E 004°36'0 0.0
2014-Dec-08 16:33N 52°28' E 004°36'0 0.0
2014-Dec-08 15:33N 52°28' E 004°36'0 0.0
2014-Dec-08 14:33N 52°28' E 004°36'0 0.0
2014-Dec-08 13:33N 52°28' E 004°36'0 0.0
2014-Dec-08 12:30N 52°28' E 004°36'0 0.0
2014-Dec-08 11:33N 52°28' E 004°36'0 0.0
2014-Dec-08 10:33N 52°28' E 004°36'0 0.0
2014-Dec-08 09:33N 52°28' E 004°36'0 0.0
2014-Dec-08 08:33N 52°28' E 004°36'0 0.0
2014-Dec-08 07:33N 52°28' E 004°36'0 0.0
2014-Dec-08 06:33N 52°28' E 004°36'0 0.0
2014-Dec-08 05:33N 52°28' E 004°36'0 0.0
2014-Dec-08 04:33N 52°28' E 004°36'0 0.0
2014-Dec-08 03:33N 52°28' E 004°36'0 0.0
2014-Dec-08 02:33N 52°28' E 004°36'0 0.0
2014-Dec-08 01:33N 52°28' E 004°36'0 0.0
2014-Dec-08 00:33N 52°28' E 004°36'0 0.0
2014-Dec-07 23:33N 52°28' E 004°36'0 0.0
2014-Dec-07 22:33N 52°28' E 004°36'0 0.0
2014-Dec-07 21:33N 52°28' E 004°36'0 0.0
2014-Dec-07 20:33N 52°28' E 004°36'0 0.0
2014-Dec-07 19:33N 52°28' E 004°36'0 0.0
2014-Dec-07 18:33N 52°28' E 004°36'0 0.2
2014-Dec-07 17:33N 52°28' E 004°35'5 4.8
2014-Dec-07 16:33N 52°29' E 004°27'7 6.7
2014-Dec-07 15:33N 52°30' E 004°17'9 8.8
2014-Dec-07 14:33N 52°30' E 004°02'10 9.6
2014-Dec-07 13:30N 52°29' E 003°46'7 7.0
2014-Dec-07 12:28N 52°24' E 003°37'6110.0
2014-Dec-07 06:25N 51°40' E 002°29'1011.0
2014-Dec-07 05:30N 51°33' E 002°18'1111.7
2014-Dec-07 04:33N 51°24' E 002°08'1111.2
2014-Dec-07 03:33N 51°13' E 002°02'1313.1
2014-Dec-07 02:34N 51°06' E 001°45'1413.8
2014-Dec-07 01:33N 50°56' E 001°29'13610.5
2014-Dec-06 12:33N 50°25' W 001°60'12 9.3
2014-Dec-06 11:14N 50°30' W 002°17'15 2.2
2014-Dec-06 04:25N 50°23' W 002°38'1 1.2
2014-Dec-06 03:13N 50°23' W 002°36'3 1.3
2014-Dec-06 01:10N 50°24' W 002°40'5 8.2
2014-Dec-06 00:33N 50°22' W 002°47'9 8.8
2014-Dec-05 23:34N 50°18' W 002°60'9 9.2
2014-Dec-05 22:33N 50°13' W 003°12'10 9.8
2014-Dec-05 21:33N 50°10' W 003°27'1010.1
2014-Dec-05 20:32N 50°06' W 003°41'  
Track history (hours):
 
Tides and Currents Weather Stations Pressure Air Temp Water Temp Dewpoint Dewpoint Depression Visibility Wind Speed Wind Dir Waves Ship Positions

Trabzon

Last reported at 2014-Dec-14 16:30 UTC. Time now 2014-Dec-20 16:30 UTC.
Position N 66°13' E 012°42'.

Length 229 m; draft 9 m.

Type: Cargo ship. MMSI: 215679000.

Date/timePositionNaut miles runAvg speedWind from/ knotsBaromVisibWave heightAir tempDewpointWater temp
2014-Dec-14 16:30N 66°13' E 012°42'5 4.9
2014-Dec-14 15:33N 66°15' E 012°32'8 8.4
2014-Dec-14 14:33N 66°17' E 012°12'  
2014-Dec-11 02:33N 54°20' E 004°60'1110.9
2014-Dec-11 01:33N 54°09' E 004°55'10 9.8
2014-Dec-11 00:31N 53°59' E 004°53'9 9.3
2014-Dec-10 23:32N 53°50' E 004°54'10 9.8
2014-Dec-10 22:33N 53°41' E 004°52'1010.5
2014-Dec-10 21:33N 53°31' E 004°46'1111.3
2014-Dec-10 20:34N 53°20' E 004°40'1211.8
2014-Dec-10 19:33N 53°09' E 004°31'1312.9
2014-Dec-10 18:33N 52°59' E 004°19'1312.6
2014-Dec-10 17:33N 52°47' E 004°11'1212.3
2014-Dec-10 16:33N 52°35' E 004°06'9 9.3
2014-Dec-10 15:33N 52°30' E 004°19'8 8.5
2014-Dec-10 14:33N 52°28' E 004°32'2 2.0
2014-Dec-10 13:33N 52°28' E 004°36'0 0.0
2014-Dec-10 12:33N 52°28' E 004°36'0 0.0
2014-Dec-10 11:33N 52°28' E 004°36'0 0.0
2014-Dec-10 10:33N 52°28' E 004°36'0 0.0
2014-Dec-10 09:33N 52°28' E 004°36'0 0.0
2014-Dec-10 08:33N 52°28' E 004°36'0 0.0
2014-Dec-10 07:33N 52°28' E 004°36'0 0.0
2014-Dec-10 06:33N 52°28' E 004°36'0 0.0
2014-Dec-10 05:33N 52°28' E 004°36'0 0.0
2014-Dec-10 04:33N 52°28' E 004°36'0 0.0
2014-Dec-10 02:33N 52°28' E 004°36'0 0.0
2014-Dec-10 01:30N 52°28' E 004°36'0 0.0
2014-Dec-10 00:33N 52°28' E 004°36'0 0.0
2014-Dec-09 23:33N 52°28' E 004°36'0 0.0
2014-Dec-09 22:33N 52°28' E 004°36'0 0.0
2014-Dec-09 21:33N 52°28' E 004°36'0 0.0
2014-Dec-09 20:33N 52°28' E 004°36'0 0.0
2014-Dec-09 19:33N 52°28' E 004°36'0 0.0
2014-Dec-09 18:33N 52°28' E 004°36'0 0.0
2014-Dec-09 17:33N 52°28' E 004°36'0 0.0
2014-Dec-09 16:33N 52°28' E 004°36'0 0.0
2014-Dec-09 15:33N 52°28' E 004°36'0 0.0
2014-Dec-09 14:33N 52°28' E 004°36'0 0.0
2014-Dec-09 13:33N 52°28' E 004°36'0 0.0
2014-Dec-09 12:33N 52°28' E 004°36'0 0.0
2014-Dec-09 11:33N 52°28' E 004°36'0 0.0
2014-Dec-09 10:33N 52°28' E 004°36'0 0.0
2014-Dec-09 09:33N 52°28' E 004°36'0 0.0
2014-Dec-09 08:33N 52°28' E 004°36'0 0.0
2014-Dec-09 07:33N 52°28' E 004°36'0 0.0
2014-Dec-09 06:33N 52°28' E 004°36'0 0.0
2014-Dec-09 05:33N 52°28' E 004°36'0 0.0
2014-Dec-09 04:33N 52°28' E 004°36'0 0.0
2014-Dec-09 03:33N 52°28' E 004°36'0 0.0
2014-Dec-09 02:33N 52°28' E 004°36'0 0.0
2014-Dec-09 01:33N 52°28' E 004°36'0 0.0
2014-Dec-09 00:33N 52°28' E 004°36'0 0.0
2014-Dec-08 23:33N 52°28' E 004°36'0 0.0
2014-Dec-08 22:33N 52°28' E 004°36'0 0.0
2014-Dec-08 21:33N 52°28' E 004°36'0 0.0
2014-Dec-08 20:33N 52°28' E 004°36'0 0.0
2014-Dec-08 19:33N 52°28' E 004°36'0 0.0
2014-Dec-08 18:33N 52°28' E 004°36'0 0.0
2014-Dec-08 17:33N 52°28' E 004°36'0 0.0
2014-Dec-08 16:33N 52°28' E 004°36'0 0.0
2014-Dec-08 15:33N 52°28' E 004°36'0 0.0
2014-Dec-08 14:33N 52°28' E 004°36'0 0.0
2014-Dec-08 13:33N 52°28' E 004°36'0 0.0
2014-Dec-08 12:30N 52°28' E 004°36'0 0.0
2014-Dec-08 11:33N 52°28' E 004°36'0 0.0
2014-Dec-08 10:33N 52°28' E 004°36'0 0.0
2014-Dec-08 09:33N 52°28' E 004°36'0 0.0
2014-Dec-08 08:33N 52°28' E 004°36'0 0.0
2014-Dec-08 07:33N 52°28' E 004°36'0 0.0
2014-Dec-08 06:33N 52°28' E 004°36'0 0.0
2014-Dec-08 05:33N 52°28' E 004°36'0 0.0
2014-Dec-08 04:33N 52°28' E 004°36'0 0.0
2014-Dec-08 03:33N 52°28' E 004°36'0 0.0
2014-Dec-08 02:33N 52°28' E 004°36'0 0.0
2014-Dec-08 01:33N 52°28' E 004°36'0 0.0
2014-Dec-08 00:33N 52°28' E 004°36'0 0.0
2014-Dec-07 23:33N 52°28' E 004°36'0 0.0
2014-Dec-07 22:33N 52°28' E 004°36'0 0.0
2014-Dec-07 21:33N 52°28' E 004°36'0 0.0
2014-Dec-07 20:33N 52°28' E 004°36'0 0.0
2014-Dec-07 19:33N 52°28' E 004°36'0 0.0
2014-Dec-07 18:33N 52°28' E 004°36'0 0.2
2014-Dec-07 17:33N 52°28' E 004°35'5 4.8
2014-Dec-07 16:33N 52°29' E 004°27'7 6.7
2014-Dec-07 15:33N 52°30' E 004°17'9 8.8
2014-Dec-07 14:33N 52°30' E 004°02'10 9.6
2014-Dec-07 13:30N 52°29' E 003°46'7 7.0
2014-Dec-07 12:28N 52°24' E 003°37'6110.0
2014-Dec-07 06:25N 51°40' E 002°29'1011.0
2014-Dec-07 05:30N 51°33' E 002°18'1111.7
2014-Dec-07 04:33N 51°24' E 002°08'1111.2
2014-Dec-07 03:33N 51°13' E 002°02'1313.1
2014-Dec-07 02:34N 51°06' E 001°45'1413.8
2014-Dec-07 01:33N 50°56' E 001°29'13610.5
2014-Dec-06 12:33N 50°25' W 001°60'12 9.3
2014-Dec-06 11:14N 50°30' W 002°17'15 2.2
2014-Dec-06 04:25N 50°23' W 002°38'1 1.2
2014-Dec-06 03:13N 50°23' W 002°36'3 1.3
2014-Dec-06 01:10N 50°24' W 002°40'5 8.2
2014-Dec-06 00:33N 50°22' W 002°47'9 8.8
2014-Dec-05 23:34N 50°18' W 002°60'9 9.2
2014-Dec-05 22:33N 50°13' W 003°12'10 9.8
2014-Dec-05 21:33N 50°10' W 003°27'1010.1
2014-Dec-05 20:32N 50°06' W 003°41'  

Dump ship's entire track history